Skiathos Island, Greece

11:13 AM EEST on July 23, 2014 (GMT +0300)
Skiathos (LGSK) Elev 49 ft | 39.18 °N, 23.50 °E | Change Station
Active Advisory: Thunderstorms

Current weather conditions updated 23 minutes ago

Partly Cloudy
Partly Cloudy
81 °F
Feels Like 84 °F
N
7
Wind Variable Wind from North

Today is forecast to be Much Cooler than yesterday.

Today
High -- | Low -- °F
--% Chance of Precip.
Yesterday
High -- | Low -- °F
Precip. -- in
6:18 AM 8:46 PM
Waning Crescent, 12% visible
Pressure 29.68 in
Visibility 6.2 miles
Clouds Few 2000 ft
Heat Index 84 °F
Dew Point 70 °F
Humidity 70%
Rainfall 0.00 in
Snow Depth Not available.
UV 7 out of 12
Pollen Not available.
Air Quality Not available.
Flu Activity Not available.
METAR LGSK 230750Z 36006KT 9999 FEW020TCU 27/21 Q1005

More Conditions Fewer Conditions

Pressure 29.68 in
Visibility 6.2 miles
Clouds Few 2000 ft
Heat Index 84 °F
Dew Point 70 °F
Humidity 70%
Rainfall 0.00 in
Snow Depth Not available.
UV 7 out of 12
Pollen Not available.
Air Quality Not available.
Flu Activity Not available.
METAR LGSK 230750Z 36006KT 9999 FEW020TCU 27/21 Q1005

More Conditions Fewer Conditions

10-Day Weather Forecast

Almanac

Astronomy

Jul. 23, 2014 Rise Set
Actual Time 6:18 AM EEST 8:46 PM EEST
Civil Twilight 5:47 AM EEST 9:16 PM EEST
Nautical Twilight 5:09 AM EEST 9:54 PM EEST
Astronomical Twilight 4:27 AM EEST 10:36 PM EEST
Moon 3:22 AM EEST 5:59 PM EEST
Length of Visible Light 15h 29m
Length of Day
14h 27m
Tomorrow will be 1m 39s shorter.
Waning Crescent, 12% of the Moon is Illuminated
Today
Waning Crescent
Jul 26
New
Aug 3
First Quarter
Aug 10
Full
Aug 17
Last Quarter

Yesterday's Extremes

Country Highs Country Lows

Community

WunderPhotos

Upload Photos

1,736,529 photos uploaded!

Nearby

Snow Depth

Not available.

Earthquake Activity

City Distance Mag. Time & Date
No recent earthquake activity has been reported nearby.
Minimum magnitude displayed is 2.5.

Coastal Water Temperatures

Place Temperature
No Stations Reporting

Nearby Weather Stations

Station Location Temp. Heat Index Dew Point Humidity Wind Precip. Elev Updated Type
Skopelos Greece, Ελλάδα 83.7 °F 90 °F 73 °F 71% WNW  at  2.9 mph 0.00 in / hr 259 ft 11:13 AM EEST Rapid Fire
ALONISSOS 79.5 °F 83 °F 72 °F 78% NW  at  9.0 mph 0.00 in / hr 125 ft 11:05 AM EEST Normal

Show More Stations Show Fewer Stations